Felix-Klein-Gymnasium, Gttingen, 150m NN
Wetterdaten: aktuell Freitag, 18.01.2019 03:00
Datum Zeit Temp. A. Feuchte A. Luftdruck Regen Wind Richtung Richtung Sonnenschein Taupunkt Windchill Windben
18.01.2019 03:00 0,6 C 90 % 1009,8 hPa 0,0 mm 9,8 km/h (2 Bft) S 171 0 min -0,8 C -2,5 C 22,5 km/h (4 Bft)
18.01.2019 02:45 0,7 C 89 % 1009,6 hPa 0,0 mm 10,0 km/h (2 Bft) SW 219 0 min -0,9 C -2,5 C 24,1 km/h (4 Bft)
18.01.2019 02:30 0,9 C 88 % 1009,3 hPa 0,0 mm 11,0 km/h (2 Bft) S 178 0 min -0,9 C -2,5 C 22,5 km/h (4 Bft)
18.01.2019 02:15 0,9 C 88 % 1008,8 hPa 0,0 mm 12,0 km/h (2 Bft) S-SO 163 0 min -0,9 C -2,7 C 25,7 km/h (4 Bft)
18.01.2019 02:00 0,9 C 88 % 1008,6 hPa 0,0 mm 12,1 km/h (2 Bft) S-SW 195 0 min -0,9 C -2,7 C 22,5 km/h (4 Bft)
18.01.2019 01:45 0,9 C 88 % 1008,5 hPa 0,0 mm 9,8 km/h (2 Bft) S-SW 205 0 min -0,9 C -2,2 C 20,9 km/h (4 Bft)
18.01.2019 01:30 1,1 C 88 % 1008,2 hPa 0,0 mm 11,5 km/h (2 Bft) SW 219 0 min -0,7 C -2,4 C 24,1 km/h (4 Bft)
18.01.2019 01:15 1,1 C 88 % 1008,0 hPa 0,0 mm 12,5 km/h (3 Bft) S-SW 209 0 min -0,7 C -2,6 C 29,0 km/h (5 Bft)
18.01.2019 01:00 1,0 C 88 % 1007,7 hPa 0,0 mm 12,8 km/h (3 Bft) S 176 0 min -0,8 C -2,8 C 27,4 km/h (4 Bft)
18.01.2019 00:45 1,3 C 85 % 1007,5 hPa 0,0 mm 14,5 km/h (3 Bft) S-SO 165 0 min -0,9 C -2,7 C 29,0 km/h (5 Bft)
18.01.2019 00:30 1,6 C 84 % 1007,2 hPa 0,0 mm 14,8 km/h (3 Bft) S-SO 167 0 min -0,8 C -2,4 C 38,6 km/h (5 Bft)
18.01.2019 00:15 1,6 C 85 % 1007,1 hPa 0,0 mm 7,4 km/h (2 Bft) S-SO 156 0 min -0,6 C -0,7 C 16,1 km/h (3 Bft)
18.01.2019 00:00 1,5 C 85 % 1006,9 hPa 0,0 mm 6,9 km/h (2 Bft) S-SO 152 0 min -0,7 C -0,6 C 17,7 km/h (3 Bft)
17.01.2019 23:45 1,5 C 85 % 1006,8 hPa 0,0 mm 4,8 km/h (1 Bft) S-SO 155 0 min -0,7 C 0,2 C 16,1 km/h (3 Bft)
17.01.2019 23:30 1,4 C 85 % 1006,5 hPa 0,3 mm 3,2 km/h (1 Bft) S 177 0 min -0,8 C 1,4 C 17,7 km/h (3 Bft)
17.01.2019 23:15 1,3 C 86 % 1006,3 hPa 0,0 mm 6,4 km/h (2 Bft) S-SO 155 0 min -0,8 C -0,7 C 22,5 km/h (4 Bft)
17.01.2019 23:00 1,3 C 87 % 1006,0 hPa 0,0 mm 5,8 km/h (2 Bft) SO 144 0 min -0,6 C -0,5 C 16,1 km/h (3 Bft)
17.01.2019 22:45 1,2 C 88 % 1005,7 hPa 0,0 mm 12,6 km/h (3 Bft) SO 140 0 min -0,6 C -2,5 C 27,4 km/h (4 Bft)
17.01.2019 22:30 1,1 C 90 % 1005,4 hPa 0,0 mm 9,2 km/h (2 Bft) S-SW 200 0 min -0,4 C -1,8 C 22,5 km/h (4 Bft)
17.01.2019 22:15 1,0 C 91 % 1005,1 hPa 0,0 mm 7,1 km/h (2 Bft) S-SW 195 0 min -0,3 C -1,3 C 20,9 km/h (4 Bft)
17.01.2019 22:00 1,2 C 91 % 1004,9 hPa 0,3 mm 9,0 km/h (2 Bft) S-SO 154 0 min -0,1 C -1,6 C 24,1 km/h (4 Bft)
17.01.2019 21:45 1,7 C 86 % 1004,7 hPa 0,0 mm 7,2 km/h (2 Bft) S-SO 163 0 min -0,4 C -0,5 C 20,9 km/h (4 Bft)
17.01.2019 21:30 2,0 C 85 % 1004,3 hPa 0,0 mm 4,8 km/h (1 Bft) S 188 0 min -0,3 C 0,8 C 19,3 km/h (3 Bft)
17.01.2019 21:15 2,1 C 84 % 1004,2 hPa 0,0 mm 4,0 km/h (1 Bft) SO 133 0 min -0,3 C 2,1 C 20,9 km/h (4 Bft)
17.01.2019 21:00 2,1 C 84 % 1003,9 hPa 0,0 mm 5,0 km/h (1 Bft) S-SO 153 0 min -0,3 C 0,8 C 19,3 km/h (3 Bft)
17.01.2019 20:45 2,1 C 83 % 1003,6 hPa 0,0 mm 12,2 km/h (2 Bft) O-SO 113 0 min -0,5 C -1,3 C 30,6 km/h (5 Bft)
17.01.2019 20:30 1,9 C 83 % 1003,3 hPa 0,0 mm 14,3 km/h (3 Bft) S 171 0 min -0,7 C -1,9 C 33,8 km/h (5 Bft)
17.01.2019 20:15 1,7 C 85 % 1003,0 hPa 0,0 mm 7,8 km/h (2 Bft) S-SW 195 0 min -0,5 C -0,7 C 20,9 km/h (4 Bft)
17.01.2019 20:00 1,6 C 85 % 1002,9 hPa 0,0 mm 13,1 km/h (3 Bft) S-SW 200 0 min -0,6 C -2,1 C 29,0 km/h (5 Bft)
17.01.2019 19:45 1,7 C 87 % 1002,8 hPa 0,0 mm 13,7 km/h (3 Bft) S-SO 155 0 min -0,2 C -2,1 C 35,4 km/h (5 Bft)
17.01.2019 19:30 1,8 C 89 % 1002,4 hPa 0,0 mm 8,3 km/h (2 Bft) S-SW 195 0 min 0,2 C -0,7 C 22,5 km/h (4 Bft)
17.01.2019 19:15 2,2 C 87 % 1002,2 hPa 0,0 mm 14,7 km/h (3 Bft) S 176 0 min 0,3 C -1,7 C 35,4 km/h (5 Bft)
17.01.2019 19:00 2,5 C 85 % 1001,7 hPa 0,0 mm 13,5 km/h (3 Bft) S 180 0 min 0,2 C -1,1 C 30,6 km/h (5 Bft)
17.01.2019 18:45 2,5 C 86 % 1001,6 hPa 0,0 mm 15,7 km/h (3 Bft) S-SO 152 0 min 0,4 C -1,5 C 30,6 km/h (5 Bft)
17.01.2019 18:30 2,6 C 87 % 1001,3 hPa 0,0 mm 14,6 km/h (3 Bft) S-SW 195 0 min 0,7 C -1,1 C 27,4 km/h (4 Bft)
17.01.2019 18:15 2,6 C 88 % 1000,9 hPa 0,0 mm 10,3 km/h (2 Bft) S-SW 213 0 min 0,8 C -0,3 C 29,0 km/h (5 Bft)
17.01.2019 18:00 2,7 C 88 % 1000,7 hPa 0,0 mm 12,7 km/h (3 Bft) S 186 0 min 0,9 C -0,7 C 30,6 km/h (5 Bft)
17.01.2019 17:45 2,7 C 88 % 1000,4 hPa 0,0 mm 15,4 km/h (3 Bft) S 180 0 min 0,9 C -1,2 C 29,0 km/h (5 Bft)
17.01.2019 17:30 2,5 C 89 % 1000,1 hPa 0,0 mm 15,8 km/h (3 Bft) S-SW 205 0 min 0,9 C -1,5 C 30,6 km/h (5 Bft)
17.01.2019 17:15 2,5 C 89 % 999,7 hPa 0,0 mm 16,1 km/h (3 Bft) S 179 0 min 0,9 C -1,5 C 30,6 km/h (5 Bft)
17.01.2019 17:00 2,4 C 90 % 999,3 hPa 0,0 mm 11,0 km/h (2 Bft) S-SW 195 0 min 0,9 C -0,7 C 24,1 km/h (4 Bft)
17.01.2019 16:45 2,4 C 89 % 999,3 hPa 0,0 mm 9,7 km/h (2 Bft) S-SO 164 0 min 0,8 C -0,4 C 29,0 km/h (5 Bft)
17.01.2019 16:30 2,4 C 90 % 999,1 hPa 0,0 mm 11,5 km/h (2 Bft) S 171 15 min 0,9 C -0,8 C 32,2 km/h (5 Bft)
17.01.2019 16:15 2,4 C 91 % 998,6 hPa 0,0 mm 10,6 km/h (2 Bft) S-SO 158 0 min 1,1 C -0,6 C 27,4 km/h (4 Bft)
17.01.2019 16:00 2,3 C 90 % 998,4 hPa 0,8 mm 12,4 km/h (3 Bft) SO 141 0 min 0,8 C -1,1 C 29,0 km/h (5 Bft)
17.01.2019 15:45 3,1 C 87 % 998,1 hPa 0,5 mm 19,3 km/h (3 Bft) S-SO 163 0 min 1,2 C -1,2 C 48,3 km/h (6 Bft)
17.01.2019 15:30 5,3 C 85 % 996,9 hPa 0,0 mm 12,8 km/h (3 Bft) SO 138 0 min 3,0 C 2,5 C 33,8 km/h (5 Bft)
17.01.2019 15:15 5,3 C 84 % 996,5 hPa 0,3 mm 14,5 km/h (3 Bft) O 80 0 min 2,8 C 2,2 C 40,2 km/h (6 Bft)
17.01.2019 15:00 5,6 C 82 % 996,6 hPa 0,0 mm 12,8 km/h (3 Bft) O-SO 108 0 min 2,8 C 2,8 C 37,0 km/h (5 Bft)
17.01.2019 14:45 5,7 C 79 % 996,7 hPa 0,0 mm 9,9 km/h (2 Bft) O-SO 104 0 min 2,3 C 3,5 C 33,8 km/h (5 Bft)
17.01.2019 14:30 5,8 C 77 % 996,7 hPa 0,0 mm 11,9 km/h (2 Bft) O-SO 105 0 min 2,1 C 3,2 C 38,6 km/h (5 Bft)
17.01.2019 14:15 6,2 C 73 % 996,9 hPa 0,0 mm 9,3 km/h (2 Bft) O 100 0 min 1,7 C 4,2 C 30,6 km/h (5 Bft)
17.01.2019 14:00 6,5 C 71 % 997,3 hPa 0,0 mm 5,1 km/h (1 Bft) O 80 0 min 1,6 C 5,7 C 20,9 km/h (4 Bft)
17.01.2019 13:45 6,7 C 70 % 997,7 hPa 0,0 mm 6,2 km/h (2 Bft) O-SO 111 0 min 1,6 C 5,6 C 25,7 km/h (4 Bft)
17.01.2019 13:30 6,8 C 71 % 998,1 hPa 0,0 mm 8,1 km/h (2 Bft) O-SO 117 15 min 1,9 C 5,2 C 27,4 km/h (4 Bft)
17.01.2019 13:15 6,7 C 70 % 998,3 hPa 0,0 mm 8,1 km/h (2 Bft) O 91 15 min 1,6 C 5,1 C 24,1 km/h (4 Bft)
17.01.2019 13:00 6,3 C 73 % 998,5 hPa 0,0 mm 3,7 km/h (1 Bft) SO 139 15 min 1,8 C 6,3 C 24,1 km/h (4 Bft)
17.01.2019 12:45 6,0 C 73 % 998,8 hPa 0,0 mm 10,4 km/h (2 Bft) O-SO 107 0 min 1,5 C 3,8 C 32,2 km/h (5 Bft)
17.01.2019 12:30 5,9 C 79 % 999,0 hPa 0,0 mm 3,3 km/h (1 Bft) O-SO 109 0 min 2,5 C 5,9 C 19,3 km/h (3 Bft)
17.01.2019 12:15 5,7 C 84 % 999,2 hPa 0,0 mm 3,0 km/h (1 Bft) O-SO 110 15 min 3,2 C 5,7 C 12,9 km/h (3 Bft)
17.01.2019 12:00 5,4 C 85 % 999,5 hPa 0,0 mm 3,5 km/h (1 Bft) NO 40 0 min 3,1 C 5,4 C 17,7 km/h (3 Bft)
17.01.2019 11:45 5,1 C 86 % 999,6 hPa 0,0 mm 3,5 km/h (1 Bft) O 86 0 min 3,0 C 5,1 C 17,7 km/h (3 Bft)
17.01.2019 11:30 5,0 C 86 % 999,8 hPa 0,0 mm 2,8 km/h (1 Bft) O 99 0 min 2,9 C 5,0 C 14,5 km/h (3 Bft)
17.01.2019 11:15 5,0 C 86 % 999,9 hPa 0,0 mm 4,9 km/h (1 Bft) O 97 0 min 2,9 C 4,1 C 17,7 km/h (3 Bft)
17.01.2019 11:00 4,9 C 86 % 999,8 hPa 0,0 mm 3,6 km/h (1 Bft) O 82 0 min 2,8 C 4,9 C 17,7 km/h (3 Bft)
17.01.2019 10:45 4,8 C 87 % 1000,0 hPa 0,0 mm 1,2 km/h (1 Bft) O-SO 113 0 min 2,8 C 4,8 C 11,3 km/h (2 Bft)
17.01.2019 10:30 4,7 C 87 % 999,9 hPa 0,0 mm 1,6 km/h (1 Bft) O 101 0 min 2,7 C 4,7 C 11,3 km/h (2 Bft)
17.01.2019 10:15 4,6 C 88 % 999,9 hPa 0,0 mm 1,4 km/h (1 Bft) O 94 0 min 2,8 C 4,6 C 14,5 km/h (3 Bft)
17.01.2019 10:00 4,6 C 88 % 999,8 hPa 0,0 mm 0,9 km/h (0 Bft) O 82 0 min 2,8 C 4,6 C 9,7 km/h (2 Bft)
17.01.2019 09:45 4,5 C 88 % 1000,0 hPa 0,0 mm 2,0 km/h (1 Bft) O-SO 106 0 min 2,7 C 4,5 C 11,3 km/h (2 Bft)
17.01.2019 09:30 4,4 C 88 % 1000,0 hPa 0,0 mm 1,8 km/h (1 Bft) O 84 0 min 2,6 C 4,4 C 9,7 km/h (2 Bft)
17.01.2019 09:15 4,4 C 88 % 1000,0 hPa 0,0 mm 4,1 km/h (1 Bft) O 97 0 min 2,6 C 4,4 C 20,9 km/h (4 Bft)
17.01.2019 09:00 4,4 C 88 % 999,8 hPa 0,0 mm 2,6 km/h (1 Bft) O-SO 119 0 min 2,6 C 4,4 C 16,1 km/h (3 Bft)
17.01.2019 08:45 4,3 C 89 % 999,8 hPa 0,0 mm 3,6 km/h (1 Bft) O-NO 64 0 min 2,7 C 4,3 C 22,5 km/h (4 Bft)
17.01.2019 08:30 4,1 C 90 % 999,7 hPa 0,0 mm 0,8 km/h (0 Bft) O 97 0 min 2,6 C 4,1 C 9,7 km/h (2 Bft)
17.01.2019 08:15 4,0 C 90 % 999,7 hPa 0,0 mm 0,3 km/h (0 Bft) O 85 0 min 2,5 C 4,0 C 6,4 km/h (2 Bft)
17.01.2019 08:00 4,1 C 90 % 999,6 hPa 0,0 mm 0,0 km/h (0 Bft) SO 132 0 min 2,6 C 4,1 C 0,0 km/h (0 Bft)
17.01.2019 07:45 4,2 C 89 % 999,7 hPa 0,0 mm 1,1 km/h (1 Bft) SO 133 0 min 2,6 C 4,2 C 9,7 km/h (2 Bft)
17.01.2019 07:30 4,3 C 88 % 999,8 hPa 0,0 mm 1,6 km/h (1 Bft) O-SO 122 0 min 2,5 C 4,3 C 11,3 km/h (2 Bft)
17.01.2019 07:15 4,3 C 87 % 999,8 hPa 0,0 mm 1,6 km/h (1 Bft) SO 130 0 min 2,3 C 4,3 C 12,9 km/h (3 Bft)
17.01.2019 07:00 4,3 C 87 % 999,6 hPa 0,0 mm 3,8 km/h (1 Bft) O 89 0 min 2,3 C 4,3 C 12,9 km/h (3 Bft)
17.01.2019 06:45 4,3 C 87 % 999,6 hPa 0,0 mm 1,8 km/h (1 Bft) O-SO 117 0 min 2,3 C 4,3 C 12,9 km/h (3 Bft)
17.01.2019 06:30 4,3 C 86 % 999,6 hPa 0,0 mm 0,9 km/h (0 Bft) O-SO 110 0 min 2,2 C 4,3 C 6,4 km/h (2 Bft)
17.01.2019 06:15 4,3 C 86 % 999,5 hPa 0,0 mm 1,8 km/h (1 Bft) O-SO 104 0 min 2,2 C 4,3 C 17,7 km/h (3 Bft)
17.01.2019 06:00 4,3 C 86 % 999,3 hPa 0,0 mm 2,8 km/h (1 Bft) SO 128 0 min 2,2 C 4,3 C 19,3 km/h (3 Bft)
17.01.2019 05:45 4,3 C 86 % 999,5 hPa 0,0 mm 2,8 km/h (1 Bft) O-SO 107 0 min 2,2 C 4,3 C 22,5 km/h (4 Bft)
17.01.2019 05:30 4,3 C 85 % 999,5 hPa 0,0 mm 5,2 km/h (1 Bft) O-SO 114 0 min 2,0 C 3,2 C 22,5 km/h (4 Bft)
17.01.2019 05:15 4,3 C 85 % 999,4 hPa 0,0 mm 7,1 km/h (2 Bft) O-SO 113 0 min 2,0 C 2,6 C 32,2 km/h (5 Bft)
17.01.2019 05:00 4,4 C 84 % 999,4 hPa 0,0 mm 9,0 km/h (2 Bft) O-SO 110 0 min 1,9 C 2,2 C 27,4 km/h (4 Bft)
17.01.2019 04:45 4,4 C 83 % 999,3 hPa 0,0 mm 10,8 km/h (2 Bft) O-SO 123 0 min 1,8 C 1,8 C 29,0 km/h (5 Bft)
17.01.2019 04:30 4,3 C 83 % 999,2 hPa 0,0 mm 10,1 km/h (2 Bft) O-SO 113 0 min 1,7 C 1,8 C 29,0 km/h (5 Bft)
17.01.2019 04:15 4,3 C 83 % 999,2 hPa 0,0 mm 9,6 km/h (2 Bft) O-NO 76 0 min 1,7 C 1,9 C 27,4 km/h (4 Bft)
17.01.2019 04:00 4,3 C 82 % 999,3 hPa 0,0 mm 9,1 km/h (2 Bft) N-NO 29 0 min 1,5 C 2,0 C 32,2 km/h (5 Bft)
_ Min-Zeit 03:00 13:15 15:15 - 08:00 - - - 00:45 01:00 08:00
Minimum _ 0,6 C 70 % 996,5 hPa - 0,0 km/h (0 Bft) - - - -0,9 C -2,8 C 0,0 km/h (0 Bft)
_ Max-Zeit 13:30 16:15 03:00 16:00 15:45 - - 12:15 12:15 13:00 15:45
Maximum _ 6,8 C 91 % 1009,8 hPa 0,8 mm 19,3 km/h
S-SO (3 Bft)
- - 15 min 3,2 C 6,3 C 48,3 km/h
S (6 Bft)
Durchschnitt _ 3,4 C 85 % 1001,4 hPa #2,0 mm 8,0 km/h (2 Bft) O-SO - #0 min. 1,1 C 1,5 C 23,8 km/h (4 Bft)